sensor_id;sensor_type;location;lat;lon;timestamp;temperature;humidity
10980;DHT22;5543;51.734;8.744;2023-07-08T00:00:17;16.30;99.90
10980;DHT22;5543;51.734;8.744;2023-07-08T00:02:47;16.40;99.90
10980;DHT22;5543;51.734;8.744;2023-07-08T00:05:17;16.30;99.90
10980;DHT22;5543;51.734;8.744;2023-07-08T00:07:46;16.30;99.90
10980;DHT22;5543;51.734;8.744;2023-07-08T00:10:17;16.30;99.90
10980;DHT22;5543;51.734;8.744;2023-07-08T00:12:48;16.30;99.90
10980;DHT22;5543;51.734;8.744;2023-07-08T00:15:17;16.20;99.90
10980;DHT22;5543;51.734;8.744;2023-07-08T00:17:47;16.20;99.90
10980;DHT22;5543;51.734;8.744;2023-07-08T00:20:18;16.20;99.90
10980;DHT22;5543;51.734;8.744;2023-07-08T00:22:47;16.20;99.90
10980;DHT22;5543;51.734;8.744;2023-07-08T00:25:17;16.20;99.90
10980;DHT22;5543;51.734;8.744;2023-07-08T00:27:46;16.20;99.90
10980;DHT22;5543;51.734;8.744;2023-07-08T00:30:20;16.10;99.90
10980;DHT22;5543;51.734;8.744;2023-07-08T00:32:50;16.20;99.90
10980;DHT22;5543;51.734;8.744;2023-07-08T00:35:22;16.10;99.90
10980;DHT22;5543;51.734;8.744;2023-07-08T00:37:52;16.10;99.90
10980;DHT22;5543;51.734;8.744;2023-07-08T00:40:21;16.00;99.90
10980;DHT22;5543;51.734;8.744;2023-07-08T00:42:52;16.00;99.90
10980;DHT22;5543;51.734;8.744;2023-07-08T00:45:32;16.00;99.90
10980;DHT22;5543;51.734;8.744;2023-07-08T00:48:19;15.90;99.90
10980;DHT22;5543;51.734;8.744;2023-07-08T00:50:50;15.80;99.90
10980;DHT22;5543;51.734;8.744;2023-07-08T00:53:23;15.80;99.90
10980;DHT22;5543;51.734;8.744;2023-07-08T00:55:53;15.80;99.90
10980;DHT22;5543;51.734;8.744;2023-07-08T00:58:25;15.80;99.90
10980;DHT22;5543;51.734;8.744;2023-07-08T01:00:55;15.70;99.90
10980;DHT22;5543;51.734;8.744;2023-07-08T01:03:27;15.70;99.90
10980;DHT22;5543;51.734;8.744;2023-07-08T01:05:58;15.80;99.90
10980;DHT22;5543;51.734;8.744;2023-07-08T01:08:28;15.80;99.90
10980;DHT22;5543;51.734;8.744;2023-07-08T01:11:00;15.80;99.90
10980;DHT22;5543;51.734;8.744;2023-07-08T01:13:33;15.90;99.90
10980;DHT22;5543;51.734;8.744;2023-07-08T01:16:03;15.90;99.90
10980;DHT22;5543;51.734;8.744;2023-07-08T01:18:33;15.90;99.90
10980;DHT22;5543;51.734;8.744;2023-07-08T01:21:04;15.90;99.90
10980;DHT22;5543;51.734;8.744;2023-07-08T01:23:35;15.90;99.90
10980;DHT22;5543;51.734;8.744;2023-07-08T01:26:05;16.00;99.90
10980;DHT22;5543;51.734;8.744;2023-07-08T01:28:33;16.00;99.90
10980;DHT22;5543;51.734;8.744;2023-07-08T01:31:02;16.00;99.90
10980;DHT22;5543;51.734;8.744;2023-07-08T01:33:32;16.10;99.90
10980;DHT22;5543;51.734;8.744;2023-07-08T01:36:00;16.20;99.90
10980;DHT22;5543;51.734;8.744;2023-07-08T01:38:29;16.20;99.90
10980;DHT22;5543;51.734;8.744;2023-07-08T01:40:58;16.30;99.90
10980;DHT22;5543;51.734;8.744;2023-07-08T01:43:27;16.30;99.90
10980;DHT22;5543;51.734;8.744;2023-07-08T01:45:58;16.30;99.90
10980;DHT22;5543;51.734;8.744;2023-07-08T01:48:29;16.30;99.90
10980;DHT22;5543;51.734;8.744;2023-07-08T01:51:01;16.30;99.90
10980;DHT22;5543;51.734;8.744;2023-07-08T01:53:33;16.30;99.90
10980;DHT22;5543;51.734;8.744;2023-07-08T01:56:03;16.40;99.90
10980;DHT22;5543;51.734;8.744;2023-07-08T01:58:31;16.50;99.90
10980;DHT22;5543;51.734;8.744;2023-07-08T02:00:59;16.60;99.90
10980;DHT22;5543;51.734;8.744;2023-07-08T02:03:28;16.70;99.90
10980;DHT22;5543;51.734;8.744;2023-07-08T02:05:57;16.80;99.90
10980;DHT22;5543;51.734;8.744;2023-07-08T02:08:26;16.90;99.90
10980;DHT22;5543;51.734;8.744;2023-07-08T02:10:55;17.00;99.90
10980;DHT22;5543;51.734;8.744;2023-07-08T02:13:26;17.10;99.90
10980;DHT22;5543;51.734;8.744;2023-07-08T02:15:54;17.10;99.90
10980;DHT22;5543;51.734;8.744;2023-07-08T02:18:22;17.10;99.90
10980;DHT22;5543;51.734;8.744;2023-07-08T02:20:51;17.30;99.90
10980;DHT22;5543;51.734;8.744;2023-07-08T02:23:19;17.30;99.90
10980;DHT22;5543;51.734;8.744;2023-07-08T02:25:51;17.40;99.90
10980;DHT22;5543;51.734;8.744;2023-07-08T02:28:19;17.40;99.90
10980;DHT22;5543;51.734;8.744;2023-07-08T02:30:48;17.40;99.90
10980;DHT22;5543;51.734;8.744;2023-07-08T02:33:16;17.40;99.90
10980;DHT22;5543;51.734;8.744;2023-07-08T02:35:45;17.40;99.90
10980;DHT22;5543;51.734;8.744;2023-07-08T02:38:13;17.40;99.90
10980;DHT22;5543;51.734;8.744;2023-07-08T02:40:41;17.40;99.90
10980;DHT22;5543;51.734;8.744;2023-07-08T02:43:09;17.40;99.90
10980;DHT22;5543;51.734;8.744;2023-07-08T02:45:37;17.40;99.90
10980;DHT22;5543;51.734;8.744;2023-07-08T02:48:06;17.40;99.90
10980;DHT22;5543;51.734;8.744;2023-07-08T02:50:34;17.40;99.90
10980;DHT22;5543;51.734;8.744;2023-07-08T02:53:02;17.40;99.90
10980;DHT22;5543;51.734;8.744;2023-07-08T02:55:30;17.30;99.90
10980;DHT22;5543;51.734;8.744;2023-07-08T02:57:59;17.30;99.90
10980;DHT22;5543;51.734;8.744;2023-07-08T03:00:27;17.30;99.90
10980;DHT22;5543;51.734;8.744;2023-07-08T03:02:55;17.30;99.90
10980;DHT22;5543;51.734;8.744;2023-07-08T03:05:24;17.20;99.90
10980;DHT22;5543;51.734;8.744;2023-07-08T03:07:52;17.20;99.90
10980;DHT22;5543;51.734;8.744;2023-07-08T03:10:20;17.20;99.90
10980;DHT22;5543;51.734;8.744;2023-07-08T03:12:48;17.20;99.90
10980;DHT22;5543;51.734;8.744;2023-07-08T03:15:16;17.20;99.90
10980;DHT22;5543;51.734;8.744;2023-07-08T03:17:44;17.20;99.90
10980;DHT22;5543;51.734;8.744;2023-07-08T03:20:13;17.20;99.90
10980;DHT22;5543;51.734;8.744;2023-07-08T03:22:42;17.20;99.90
10980;DHT22;5543;51.734;8.744;2023-07-08T03:25:11;17.20;99.90
10980;DHT22;5543;51.734;8.744;2023-07-08T03:27:39;17.30;99.90
10980;DHT22;5543;51.734;8.744;2023-07-08T03:30:08;17.30;99.90
10980;DHT22;5543;51.734;8.744;2023-07-08T03:32:36;17.30;99.90
10980;DHT22;5543;51.734;8.744;2023-07-08T03:35:05;17.30;99.90
10980;DHT22;5543;51.734;8.744;2023-07-08T03:37:34;17.20;99.90
10980;DHT22;5543;51.734;8.744;2023-07-08T03:40:04;17.30;99.90
10980;DHT22;5543;51.734;8.744;2023-07-08T03:42:32;17.20;99.90
10980;DHT22;5543;51.734;8.744;2023-07-08T03:45:01;17.20;99.90
10980;DHT22;5543;51.734;8.744;2023-07-08T03:47:29;17.30;99.90
10980;DHT22;5543;51.734;8.744;2023-07-08T03:49:57;17.40;99.90
10980;DHT22;5543;51.734;8.744;2023-07-08T03:52:25;17.40;99.90
10980;DHT22;5543;51.734;8.744;2023-07-08T03:54:53;17.40;99.90
10980;DHT22;5543;51.734;8.744;2023-07-08T03:57:24;17.40;99.80
10980;DHT22;5543;51.734;8.744;2023-07-08T03:59:52;17.50;99.80
10980;DHT22;5543;51.734;8.744;2023-07-08T04:02:20;17.50;99.80
10980;DHT22;5543;51.734;8.744;2023-07-08T04:04:48;17.70;99.20
10980;DHT22;5543;51.734;8.744;2023-07-08T04:07:17;17.70;99.40
10980;DHT22;5543;51.734;8.744;2023-07-08T04:09:45;17.80;99.40
10980;DHT22;5543;51.734;8.744;2023-07-08T04:12:17;17.90;99.30
10980;DHT22;5543;51.734;8.744;2023-07-08T04:14:47;17.90;99.70
10980;DHT22;5543;51.734;8.744;2023-07-08T04:17:15;17.80;99.70
10980;DHT22;5543;51.734;8.744;2023-07-08T04:19:45;17.80;99.50
10980;DHT22;5543;51.734;8.744;2023-07-08T04:22:13;17.80;99.70
10980;DHT22;5543;51.734;8.744;2023-07-08T04:24:41;17.80;98.90
10980;DHT22;5543;51.734;8.744;2023-07-08T04:27:12;18.00;98.50
10980;DHT22;5543;51.734;8.744;2023-07-08T04:29:42;18.10;99.10
10980;DHT22;5543;51.734;8.744;2023-07-08T04:32:11;18.00;99.30
10980;DHT22;5543;51.734;8.744;2023-07-08T04:34:40;18.10;99.20
10980;DHT22;5543;51.734;8.744;2023-07-08T04:37:10;18.10;99.20
10980;DHT22;5543;51.734;8.744;2023-07-08T04:39:38;18.20;99.30
10980;DHT22;5543;51.734;8.744;2023-07-08T04:42:07;18.20;99.60
10980;DHT22;5543;51.734;8.744;2023-07-08T04:44:35;18.10;99.80
10980;DHT22;5543;51.734;8.744;2023-07-08T04:47:03;18.10;99.90
10980;DHT22;5543;51.734;8.744;2023-07-08T04:49:33;18.20;99.40
10980;DHT22;5543;51.734;8.744;2023-07-08T04:52:01;18.20;99.90
10980;DHT22;5543;51.734;8.744;2023-07-08T04:54:29;18.20;99.70
10980;DHT22;5543;51.734;8.744;2023-07-08T04:56:57;18.30;98.50
10980;DHT22;5543;51.734;8.744;2023-07-08T04:59:26;18.40;98.10
10980;DHT22;5543;51.734;8.744;2023-07-08T05:01:54;18.60;98.50
10980;DHT22;5543;51.734;8.744;2023-07-08T05:04:22;18.70;98.90
10980;DHT22;5543;51.734;8.744;2023-07-08T05:06:52;18.80;99.20
10980;DHT22;5543;51.734;8.744;2023-07-08T05:09:20;18.90;98.70
10980;DHT22;5543;51.734;8.744;2023-07-08T05:11:50;19.00;97.90
10980;DHT22;5543;51.734;8.744;2023-07-08T05:14:18;19.10;98.70
10980;DHT22;5543;51.734;8.744;2023-07-08T05:16:46;19.20;99.10
10980;DHT22;5543;51.734;8.744;2023-07-08T05:19:14;19.30;98.60
10980;DHT22;5543;51.734;8.744;2023-07-08T05:21:42;19.30;98.10
10980;DHT22;5543;51.734;8.744;2023-07-08T05:24:13;19.50;97.50
10980;DHT22;5543;51.734;8.744;2023-07-08T05:26:41;19.50;97.60
10980;DHT22;5543;51.734;8.744;2023-07-08T05:29:09;19.50;99.10
10980;DHT22;5543;51.734;8.744;2023-07-08T05:31:37;19.50;99.10
10980;DHT22;5543;51.734;8.744;2023-07-08T05:34:15;19.60;97.60
10980;DHT22;5543;51.734;8.744;2023-07-08T05:36:43;19.80;97.30
10980;DHT22;5543;51.734;8.744;2023-07-08T05:39:13;19.80;99.80
10980;DHT22;5543;51.734;8.744;2023-07-08T05:41:41;19.90;99.10
10980;DHT22;5543;51.734;8.744;2023-07-08T05:44:09;20.00;99.20
10980;DHT22;5543;51.734;8.744;2023-07-08T05:46:37;20.10;97.80
10980;DHT22;5543;51.734;8.744;2023-07-08T05:49:05;20.20;96.80
10980;DHT22;5543;51.734;8.744;2023-07-08T05:51:34;20.30;98.40
10980;DHT22;5543;51.734;8.744;2023-07-08T05:54:02;20.40;98.80
10980;DHT22;5543;51.734;8.744;2023-07-08T05:56:32;20.50;99.10
10980;DHT22;5543;51.734;8.744;2023-07-08T05:59:00;20.60;98.90
10980;DHT22;5543;51.734;8.744;2023-07-08T06:01:28;20.60;97.90
10980;DHT22;5543;51.734;8.744;2023-07-08T06:03:57;20.70;99.00
10980;DHT22;5543;51.734;8.744;2023-07-08T06:06:27;20.80;97.30
10980;DHT22;5543;51.734;8.744;2023-07-08T06:08:56;21.00;96.60
10980;DHT22;5543;51.734;8.744;2023-07-08T06:11:24;21.10;97.50
10980;DHT22;5543;51.734;8.744;2023-07-08T06:13:54;21.20;97.20
10980;DHT22;5543;51.734;8.744;2023-07-08T06:16:22;21.30;97.50
10980;DHT22;5543;51.734;8.744;2023-07-08T06:19:05;21.30;98.00
10980;DHT22;5543;51.734;8.744;2023-07-08T06:21:33;21.40;95.90
10980;DHT22;5543;51.734;8.744;2023-07-08T06:24:02;21.50;95.90
10980;DHT22;5543;51.734;8.744;2023-07-08T06:26:30;21.60;97.00
10980;DHT22;5543;51.734;8.744;2023-07-08T06:28:59;21.60;96.10
10980;DHT22;5543;51.734;8.744;2023-07-08T06:31:28;21.70;94.20
10980;DHT22;5543;51.734;8.744;2023-07-08T06:33:56;21.80;96.00
10980;DHT22;5543;51.734;8.744;2023-07-08T06:36:25;21.80;96.30
10980;DHT22;5543;51.734;8.744;2023-07-08T06:38:53;21.90;97.20
10980;DHT22;5543;51.734;8.744;2023-07-08T06:41:21;21.90;97.00
10980;DHT22;5543;51.734;8.744;2023-07-08T06:43:49;22.00;96.40
10980;DHT22;5543;51.734;8.744;2023-07-08T06:46:19;22.10;94.90
10980;DHT22;5543;51.734;8.744;2023-07-08T06:48:47;22.10;95.90
10980;DHT22;5543;51.734;8.744;2023-07-08T06:51:15;22.20;95.90
10980;DHT22;5543;51.734;8.744;2023-07-08T06:53:43;22.30;96.40
10980;DHT22;5543;51.734;8.744;2023-07-08T06:56:11;22.30;96.10
10980;DHT22;5543;51.734;8.744;2023-07-08T06:58:39;22.40;95.80
10980;DHT22;5543;51.734;8.744;2023-07-08T07:01:08;22.40;96.10
10980;DHT22;5543;51.734;8.744;2023-07-08T07:03:37;22.50;95.80
10980;DHT22;5543;51.734;8.744;2023-07-08T07:06:05;22.60;96.00
10980;DHT22;5543;51.734;8.744;2023-07-08T07:08:33;22.60;96.00
10980;DHT22;5543;51.734;8.744;2023-07-08T07:11:02;22.70;95.50
10980;DHT22;5543;51.734;8.744;2023-07-08T07:13:29;22.90;95.10
10980;DHT22;5543;51.734;8.744;2023-07-08T07:15:57;23.00;95.20
10980;DHT22;5543;51.734;8.744;2023-07-08T07:18:25;23.10;95.60
10980;DHT22;5543;51.734;8.744;2023-07-08T07:20:55;23.20;95.70
10980;DHT22;5543;51.734;8.744;2023-07-08T07:23:23;23.40;95.90
10980;DHT22;5543;51.734;8.744;2023-07-08T07:25:51;23.40;95.40
10980;DHT22;5543;51.734;8.744;2023-07-08T07:28:19;23.50;95.50
10980;DHT22;5543;51.734;8.744;2023-07-08T07:30:54;23.70;95.40
10980;DHT22;5543;51.734;8.744;2023-07-08T07:33:23;23.80;95.10
10980;DHT22;5543;51.734;8.744;2023-07-08T07:35:51;24.00;95.70
10980;DHT22;5543;51.734;8.744;2023-07-08T07:38:20;24.10;95.70
10980;DHT22;5543;51.734;8.744;2023-07-08T07:40:52;24.30;96.40
10980;DHT22;5543;51.734;8.744;2023-07-08T07:43:21;24.40;96.20
10980;DHT22;5543;51.734;8.744;2023-07-08T07:45:55;24.60;96.60
10980;DHT22;5543;51.734;8.744;2023-07-08T07:48:24;24.80;95.10
10980;DHT22;5543;51.734;8.744;2023-07-08T07:50:52;24.90;94.40
10980;DHT22;5543;51.734;8.744;2023-07-08T07:53:22;25.10;94.60
10980;DHT22;5543;51.734;8.744;2023-07-08T07:55:56;25.30;92.80
10980;DHT22;5543;51.734;8.744;2023-07-08T07:58:25;25.50;92.40
10980;DHT22;5543;51.734;8.744;2023-07-08T08:00:53;25.60;91.10
10980;DHT22;5543;51.734;8.744;2023-07-08T08:03:21;25.80;92.10
10980;DHT22;5543;51.734;8.744;2023-07-08T08:05:49;26.00;92.30
10980;DHT22;5543;51.734;8.744;2023-07-08T08:08:19;26.20;92.60
10980;DHT22;5543;51.734;8.744;2023-07-08T08:10:50;26.40;91.30
10980;DHT22;5543;51.734;8.744;2023-07-08T08:13:18;26.50;90.10
10980;DHT22;5543;51.734;8.744;2023-07-08T08:15:47;26.70;91.00
10980;DHT22;5543;51.734;8.744;2023-07-08T08:18:15;26.90;90.20
10980;DHT22;5543;51.734;8.744;2023-07-08T08:20:43;27.00;90.70
10980;DHT22;5543;51.734;8.744;2023-07-08T08:23:11;27.20;91.40
10980;DHT22;5543;51.734;8.744;2023-07-08T08:25:39;27.40;92.30
10980;DHT22;5543;51.734;8.744;2023-07-08T08:28:09;27.60;93.20
10980;DHT22;5543;51.734;8.744;2023-07-08T08:30:37;27.90;88.90
10980;DHT22;5543;51.734;8.744;2023-07-08T08:33:05;28.10;89.10
10980;DHT22;5543;51.734;8.744;2023-07-08T08:35:33;28.40;86.50
10980;DHT22;5543;51.734;8.744;2023-07-08T08:38:02;28.60;81.20
10980;DHT22;5543;51.734;8.744;2023-07-08T08:40:32;29.00;76.40
10980;DHT22;5543;51.734;8.744;2023-07-08T08:43:02;29.70;78.20
10980;DHT22;5543;51.734;8.744;2023-07-08T08:45:36;30.60;74.30
10980;DHT22;5543;51.734;8.744;2023-07-08T08:48:11;31.30;74.50
10980;DHT22;5543;51.734;8.744;2023-07-08T08:50:44;31.90;72.50
10980;DHT22;5543;51.734;8.744;2023-07-08T08:53:17;32.60;67.20
10980;DHT22;5543;51.734;8.744;2023-07-08T08:55:47;32.70;61.80
10980;DHT22;5543;51.734;8.744;2023-07-08T08:58:27;33.40;67.10
10980;DHT22;5543;51.734;8.744;2023-07-08T09:01:01;34.30;65.90
10980;DHT22;5543;51.734;8.744;2023-07-08T09:03:36;34.70;58.00
10980;DHT22;5543;51.734;8.744;2023-07-08T09:06:11;34.50;55.60
10980;DHT22;5543;51.734;8.744;2023-07-08T09:08:40;34.50;56.60
10980;DHT22;5543;51.734;8.744;2023-07-08T09:11:23;34.60;54.60
10980;DHT22;5543;51.734;8.744;2023-07-08T09:13:54;34.20;54.60
10980;DHT22;5543;51.734;8.744;2023-07-08T09:16:33;34.40;53.40
10980;DHT22;5543;51.734;8.744;2023-07-08T09:19:06;34.60;55.80
10980;DHT22;5543;51.734;8.744;2023-07-08T09:21:44;34.90;54.10
10980;DHT22;5543;51.734;8.744;2023-07-08T09:24:18;35.10;54.10
10980;DHT22;5543;51.734;8.744;2023-07-08T09:26:59;35.70;56.10
10980;DHT22;5543;51.734;8.744;2023-07-08T09:29:28;36.10;51.10
10980;DHT22;5543;51.734;8.744;2023-07-08T09:31:58;36.10;53.00
10980;DHT22;5543;51.734;8.744;2023-07-08T09:34:37;36.40;53.30
10980;DHT22;5543;51.734;8.744;2023-07-08T09:37:21;36.20;50.20
10980;DHT22;5543;51.734;8.744;2023-07-08T09:39:49;36.40;54.00
10980;DHT22;5543;51.734;8.744;2023-07-08T09:42:25;36.40;49.50
10980;DHT22;5543;51.734;8.744;2023-07-08T09:44:55;36.60;49.00
10980;DHT22;5543;51.734;8.744;2023-07-08T09:47:26;36.80;48.30
10980;DHT22;5543;51.734;8.744;2023-07-08T09:49:58;36.80;49.80
10980;DHT22;5543;51.734;8.744;2023-07-08T09:52:29;37.10;51.40
10980;DHT22;5543;51.734;8.744;2023-07-08T09:54:57;36.70;50.00
10980;DHT22;5543;51.734;8.744;2023-07-08T09:57:27;36.60;49.60
10980;DHT22;5543;51.734;8.744;2023-07-08T09:59:58;36.30;49.70
10980;DHT22;5543;51.734;8.744;2023-07-08T10:02:32;35.90;45.90
10980;DHT22;5543;51.734;8.744;2023-07-08T10:05:12;35.90;48.70
10980;DHT22;5543;51.734;8.744;2023-07-08T10:07:41;36.10;51.70
10980;DHT22;5543;51.734;8.744;2023-07-08T10:10:13;36.00;47.70
10980;DHT22;5543;51.734;8.744;2023-07-08T10:12:56;35.90;45.70
10980;DHT22;5543;51.734;8.744;2023-07-08T10:15:28;36.10;50.10
10980;DHT22;5543;51.734;8.744;2023-07-08T10:17:59;36.40;47.30
10980;DHT22;5543;51.734;8.744;2023-07-08T10:20:38;36.60;48.80
10980;DHT22;5543;51.734;8.744;2023-07-08T10:23:18;36.20;48.20
10980;DHT22;5543;51.734;8.744;2023-07-08T10:25:58;36.40;48.00
10980;DHT22;5543;51.734;8.744;2023-07-08T10:28:47;36.30;46.80
10980;DHT22;5543;51.734;8.744;2023-07-08T10:31:25;36.50;46.10
10980;DHT22;5543;51.734;8.744;2023-07-08T10:34:18;36.60;47.90
10980;DHT22;5543;51.734;8.744;2023-07-08T10:36:53;36.50;48.10
10980;DHT22;5543;51.734;8.744;2023-07-08T10:39:52;36.00;45.80
10980;DHT22;5543;51.734;8.744;2023-07-08T10:42:33;36.20;47.70
10980;DHT22;5543;51.734;8.744;2023-07-08T10:45:09;35.80;47.40
10980;DHT22;5543;51.734;8.744;2023-07-08T10:47:55;35.90;49.70
10980;DHT22;5543;51.734;8.744;2023-07-08T10:53:35;35.70;46.30
10980;DHT22;5543;51.734;8.744;2023-07-08T10:56:10;36.40;49.10
10980;DHT22;5543;51.734;8.744;2023-07-08T10:58:52;36.60;46.90
10980;DHT22;5543;51.734;8.744;2023-07-08T11:01:32;36.90;45.30
10980;DHT22;5543;51.734;8.744;2023-07-08T11:04:27;37.20;48.20
10980;DHT22;5543;51.734;8.744;2023-07-08T11:07:12;37.40;46.20
10980;DHT22;5543;51.734;8.744;2023-07-08T11:09:46;37.70;45.70
10980;DHT22;5543;51.734;8.744;2023-07-08T11:12:24;37.60;46.10
10980;DHT22;5543;51.734;8.744;2023-07-08T11:15:01;37.90;46.80
10980;DHT22;5543;51.734;8.744;2023-07-08T11:17:34;38.30;47.50
10980;DHT22;5543;51.734;8.744;2023-07-08T11:20:14;38.80;47.80
10980;DHT22;5543;51.734;8.744;2023-07-08T11:22:49;38.80;44.10
10980;DHT22;5543;51.734;8.744;2023-07-08T11:25:21;38.70;42.90
10980;DHT22;5543;51.734;8.744;2023-07-08T11:27:53;38.80;43.00
10980;DHT22;5543;51.734;8.744;2023-07-08T11:30:24;38.30;40.30
10980;DHT22;5543;51.734;8.744;2023-07-08T11:33:00;38.80;42.00
10980;DHT22;5543;51.734;8.744;2023-07-08T11:35:37;39.30;43.20
10980;DHT22;5543;51.734;8.744;2023-07-08T11:38:12;39.10;40.20
10980;DHT22;5543;51.734;8.744;2023-07-08T11:40:53;38.80;40.20
10980;DHT22;5543;51.734;8.744;2023-07-08T11:43:26;38.40;38.40
10980;DHT22;5543;51.734;8.744;2023-07-08T11:45:56;38.40;40.90
10980;DHT22;5543;51.734;8.744;2023-07-08T11:48:26;38.60;40.30
10980;DHT22;5543;51.734;8.744;2023-07-08T11:50:56;38.20;38.80
10980;DHT22;5543;51.734;8.744;2023-07-08T11:53:35;38.50;43.30
10980;DHT22;5543;51.734;8.744;2023-07-08T11:56:19;38.70;40.70
10980;DHT22;5543;51.734;8.744;2023-07-08T11:59:03;38.70;39.50
10980;DHT22;5543;51.734;8.744;2023-07-08T12:01:39;38.20;38.80
10980;DHT22;5543;51.734;8.744;2023-07-08T12:04:27;38.00;40.70
10980;DHT22;5543;51.734;8.744;2023-07-08T12:07:08;38.20;41.80
10980;DHT22;5543;51.734;8.744;2023-07-08T12:09:44;38.40;43.90
10980;DHT22;5543;51.734;8.744;2023-07-08T12:12:20;38.00;40.00
10980;DHT22;5543;51.734;8.744;2023-07-08T12:14:50;37.60;38.80
10980;DHT22;5543;51.734;8.744;2023-07-08T12:17:20;37.30;40.00
10980;DHT22;5543;51.734;8.744;2023-07-08T12:19:50;36.90;39.90
10980;DHT22;5543;51.734;8.744;2023-07-08T12:22:20;37.00;43.30
10980;DHT22;5543;51.734;8.744;2023-07-08T12:24:50;36.90;43.00
10980;DHT22;5543;51.734;8.744;2023-07-08T12:27:18;37.00;45.20
10980;DHT22;5543;51.734;8.744;2023-07-08T12:29:48;36.80;42.10
10980;DHT22;5543;51.734;8.744;2023-07-08T12:32:17;36.60;43.70
10980;DHT22;5543;51.734;8.744;2023-07-08T12:34:49;36.30;43.90
10980;DHT22;5543;51.734;8.744;2023-07-08T12:37:18;36.10;41.10
10980;DHT22;5543;51.734;8.744;2023-07-08T12:39:55;36.10;44.00
10980;DHT22;5543;51.734;8.744;2023-07-08T12:42:26;36.20;42.80
10980;DHT22;5543;51.734;8.744;2023-07-08T12:44:54;36.10;45.90
10980;DHT22;5543;51.734;8.744;2023-07-08T12:47:23;35.80;43.80
10980;DHT22;5543;51.734;8.744;2023-07-08T12:49:51;35.60;40.80
10980;DHT22;5543;51.734;8.744;2023-07-08T12:52:21;35.50;43.10
10980;DHT22;5543;51.734;8.744;2023-07-08T12:54:49;35.20;40.40
10980;DHT22;5543;51.734;8.744;2023-07-08T12:57:19;35.20;40.50
10980;DHT22;5543;51.734;8.744;2023-07-08T12:59:47;35.20;43.10
10980;DHT22;5543;51.734;8.744;2023-07-08T13:02:17;35.50;44.00
10980;DHT22;5543;51.734;8.744;2023-07-08T13:04:49;35.60;43.60
10980;DHT22;5543;51.734;8.744;2023-07-08T13:07:25;35.40;42.00
10980;DHT22;5543;51.734;8.744;2023-07-08T13:09:55;35.50;42.50
10980;DHT22;5543;51.734;8.744;2023-07-08T13:12:26;35.30;40.20
10980;DHT22;5543;51.734;8.744;2023-07-08T13:14:56;35.30;41.70
10980;DHT22;5543;51.734;8.744;2023-07-08T13:17:25;35.50;42.60
10980;DHT22;5543;51.734;8.744;2023-07-08T13:19:53;35.80;43.90
10980;DHT22;5543;51.734;8.744;2023-07-08T13:22:22;35.80;39.90
10980;DHT22;5543;51.734;8.744;2023-07-08T13:24:59;36.10;38.70
10980;DHT22;5543;51.734;8.744;2023-07-08T13:27:29;36.30;40.50
10980;DHT22;5543;51.734;8.744;2023-07-08T13:30:16;36.40;38.30
10980;DHT22;5543;51.734;8.744;2023-07-08T13:32:47;36.90;42.10
10980;DHT22;5543;51.734;8.744;2023-07-08T13:35:23;36.90;41.50
10980;DHT22;5543;51.734;8.744;2023-07-08T13:37:52;36.90;39.60
10980;DHT22;5543;51.734;8.744;2023-07-08T13:40:20;36.90;37.90
10980;DHT22;5543;51.734;8.744;2023-07-08T13:42:51;37.10;41.00
10980;DHT22;5543;51.734;8.744;2023-07-08T13:45:24;37.00;37.70
10980;DHT22;5543;51.734;8.744;2023-07-08T13:48:01;36.90;37.80
10980;DHT22;5543;51.734;8.744;2023-07-08T13:50:35;36.70;38.40
10980;DHT22;5543;51.734;8.744;2023-07-08T13:53:17;36.70;39.90
10980;DHT22;5543;51.734;8.744;2023-07-08T13:55:46;36.70;38.80
10980;DHT22;5543;51.734;8.744;2023-07-08T13:58:17;36.80;39.70
10980;DHT22;5543;51.734;8.744;2023-07-08T14:00:46;36.70;41.50
10980;DHT22;5543;51.734;8.744;2023-07-08T14:03:15;36.70;40.30
10980;DHT22;5543;51.734;8.744;2023-07-08T14:05:45;36.70;41.60
10980;DHT22;5543;51.734;8.744;2023-07-08T14:08:15;36.80;40.90
10980;DHT22;5543;51.734;8.744;2023-07-08T14:10:44;36.80;44.80
10980;DHT22;5543;51.734;8.744;2023-07-08T14:13:13;36.70;42.70
10980;DHT22;5543;51.734;8.744;2023-07-08T14:15:43;36.90;42.80
10980;DHT22;5543;51.734;8.744;2023-07-08T14:18:13;36.90;41.80
10980;DHT22;5543;51.734;8.744;2023-07-08T14:20:41;36.60;42.40
10980;DHT22;5543;51.734;8.744;2023-07-08T14:23:10;36.50;40.20
10980;DHT22;5543;51.734;8.744;2023-07-08T14:25:39;36.30;42.90
10980;DHT22;5543;51.734;8.744;2023-07-08T14:28:08;36.00;38.70
10980;DHT22;5543;51.734;8.744;2023-07-08T14:30:47;35.80;40.90
10980;DHT22;5543;51.734;8.744;2023-07-08T14:33:15;35.40;41.60
10980;DHT22;5543;51.734;8.744;2023-07-08T14:35:43;35.40;40.90
10980;DHT22;5543;51.734;8.744;2023-07-08T14:38:12;35.20;40.40
10980;DHT22;5543;51.734;8.744;2023-07-08T14:40:42;35.20;42.00
10980;DHT22;5543;51.734;8.744;2023-07-08T14:43:14;35.20;40.40
10980;DHT22;5543;51.734;8.744;2023-07-08T14:45:48;35.10;41.40
10980;DHT22;5543;51.734;8.744;2023-07-08T14:48:17;35.10;42.30
10980;DHT22;5543;51.734;8.744;2023-07-08T14:50:45;35.00;41.40
10980;DHT22;5543;51.734;8.744;2023-07-08T14:53:14;35.10;42.80
10980;DHT22;5543;51.734;8.744;2023-07-08T14:55:43;35.30;44.90
10980;DHT22;5543;51.734;8.744;2023-07-08T14:58:20;35.20;40.70
10980;DHT22;5543;51.734;8.744;2023-07-08T15:00:50;34.90;39.70
10980;DHT22;5543;51.734;8.744;2023-07-08T15:03:19;34.80;41.00
10980;DHT22;5543;51.734;8.744;2023-07-08T15:05:48;34.90;40.50
10980;DHT22;5543;51.734;8.744;2023-07-08T15:08:16;35.10;43.00
10980;DHT22;5543;51.734;8.744;2023-07-08T15:10:48;35.20;44.10
10980;DHT22;5543;51.734;8.744;2023-07-08T15:13:17;35.30;41.90
10980;DHT22;5543;51.734;8.744;2023-07-08T15:15:47;35.30;40.70
10980;DHT22;5543;51.734;8.744;2023-07-08T15:18:18;35.00;39.90
10980;DHT22;5543;51.734;8.744;2023-07-08T15:20:46;35.00;43.50
10980;DHT22;5543;51.734;8.744;2023-07-08T15:23:14;34.90;42.10
10980;DHT22;5543;51.734;8.744;2023-07-08T15:25:44;34.70;41.00
10980;DHT22;5543;51.734;8.744;2023-07-08T15:28:16;34.60;43.40
10980;DHT22;5543;51.734;8.744;2023-07-08T15:30:45;34.40;41.00
10980;DHT22;5543;51.734;8.744;2023-07-08T15:33:15;34.50;45.20
10980;DHT22;5543;51.734;8.744;2023-07-08T15:35:45;34.30;43.10
10980;DHT22;5543;51.734;8.744;2023-07-08T15:38:13;34.20;44.90
10980;DHT22;5543;51.734;8.744;2023-07-08T15:40:41;34.20;44.90
10980;DHT22;5543;51.734;8.744;2023-07-08T15:43:13;34.30;43.40
10980;DHT22;5543;51.734;8.744;2023-07-08T15:45:41;34.40;45.30
10980;DHT22;5543;51.734;8.744;2023-07-08T15:48:12;34.50;47.00
10980;DHT22;5543;51.734;8.744;2023-07-08T15:50:41;34.40;47.00
10980;DHT22;5543;51.734;8.744;2023-07-08T15:53:14;34.40;43.70
10980;DHT22;5543;51.734;8.744;2023-07-08T15:55:44;34.20;45.50
10980;DHT22;5543;51.734;8.744;2023-07-08T15:58:22;34.30;46.10
10980;DHT22;5543;51.734;8.744;2023-07-08T16:00:52;34.20;45.00
10980;DHT22;5543;51.734;8.744;2023-07-08T16:03:23;34.10;45.30
10980;DHT22;5543;51.734;8.744;2023-07-08T16:05:52;34.10;45.50
10980;DHT22;5543;51.734;8.744;2023-07-08T16:08:22;34.30;44.40
10980;DHT22;5543;51.734;8.744;2023-07-08T16:10:55;34.40;45.00